sensor_id;sensor_type;location;lat;lon;timestamp;P1;P2;P0
61804;PMS7003;47725;47.912;7.356;2023-05-29T00:01:25;4.98;2.99;
61804;PMS7003;47725;47.912;7.356;2023-05-29T00:05:25;4.98;2.99;
61804;PMS7003;47725;47.912;7.356;2023-05-29T00:09:25;4.98;2.99;
61804;PMS7003;47725;47.912;7.356;2023-05-29T00:13:25;3.99;2.99;
61804;PMS7003;47725;47.912;7.356;2023-05-29T00:17:25;3.99;2.99;
61804;PMS7003;47725;47.912;7.356;2023-05-29T00:21:25;1.99;1.99;
61804;PMS7003;47725;47.912;7.356;2023-05-29T00:25:25;1.99;1.99;
61804;PMS7003;47725;47.912;7.356;2023-05-29T00:29:25;1.99;1.99;
61804;PMS7003;47725;47.912;7.356;2023-05-29T00:33:25;1.99;1.99;
61804;PMS7003;47725;47.912;7.356;2023-05-29T00:37:25;1.99;1.99;
61804;PMS7003;47725;47.912;7.356;2023-05-29T00:41:25;6.98;1.99;
61804;PMS7003;47725;47.912;7.356;2023-05-29T00:45:25;6.98;1.99;
61804;PMS7003;47725;47.912;7.356;2023-05-29T00:49:25;6.98;1.99;
61804;PMS7003;47725;47.912;7.356;2023-05-29T00:53:25;5.98;1.99;
61804;PMS7003;47725;47.912;7.356;2023-05-29T00:57:25;5.98;1.99;
61804;PMS7003;47725;47.912;7.356;2023-05-29T01:01:25;2.98;1.99;
61804;PMS7003;47725;47.912;7.356;2023-05-29T01:05:25;2.98;1.99;
61804;PMS7003;47725;47.912;7.356;2023-05-29T01:09:25;2.98;1.99;
61804;PMS7003;47725;47.912;7.356;2023-05-29T01:13:26;2.99;1.99;
61804;PMS7003;47725;47.912;7.356;2023-05-29T01:21:26;3.98;3.98;
61804;PMS7003;47725;47.912;7.356;2023-05-29T01:29:26;3.98;3.98;
61804;PMS7003;47725;47.912;7.356;2023-05-29T01:33:26;1.99;1.99;
61804;PMS7003;47725;47.912;7.356;2023-05-29T01:37:25;1.99;1.99;
61804;PMS7003;47725;47.912;7.356;2023-05-29T01:41:25;3.98;2.99;
61804;PMS7003;47725;47.912;7.356;2023-05-29T01:45:25;3.98;2.99;
61804;PMS7003;47725;47.912;7.356;2023-05-29T01:49:25;3.98;2.99;
61804;PMS7003;47725;47.912;7.356;2023-05-29T01:53:25;6.97;4.98;
61804;PMS7003;47725;47.912;7.356;2023-05-29T01:57:25;6.97;4.98;
61804;PMS7003;47725;47.912;7.356;2023-05-29T02:01:25;3.98;1.99;
61804;PMS7003;47725;47.912;7.356;2023-05-29T02:05:25;3.98;1.99;
61804;PMS7003;47725;47.912;7.356;2023-05-29T02:09:25;3.98;1.99;
61804;PMS7003;47725;47.912;7.356;2023-05-29T02:13:25;1.99;1.99;
61804;PMS7003;47725;47.912;7.356;2023-05-29T02:17:25;1.99;1.99;
61804;PMS7003;47725;47.912;7.356;2023-05-29T02:21:25;1.99;1.99;
61804;PMS7003;47725;47.912;7.356;2023-05-29T02:25:25;1.99;1.99;
61804;PMS7003;47725;47.912;7.356;2023-05-29T02:29:25;1.99;1.99;
61804;PMS7003;47725;47.912;7.356;2023-05-29T02:33:25;3.98;2.98;
61804;PMS7003;47725;47.912;7.356;2023-05-29T02:37:25;3.98;2.98;
61804;PMS7003;47725;47.912;7.356;2023-05-29T02:41:24;2.98;2.98;
61804;PMS7003;47725;47.912;7.356;2023-05-29T02:45:25;2.98;2.98;
61804;PMS7003;47725;47.912;7.356;2023-05-29T02:49:24;2.98;2.98;
61804;PMS7003;47725;47.912;7.356;2023-05-29T02:53:25;4.97;3.97;
61804;PMS7003;47725;47.912;7.356;2023-05-29T02:57:25;4.97;3.97;
61804;PMS7003;47725;47.912;7.356;2023-05-29T03:01:24;4.97;2.98;
61804;PMS7003;47725;47.912;7.356;2023-05-29T03:05:24;4.97;2.98;
61804;PMS7003;47725;47.912;7.356;2023-05-29T03:09:24;4.97;2.98;
61804;PMS7003;47725;47.912;7.356;2023-05-29T03:13:24;2.98;2.98;
61804;PMS7003;47725;47.912;7.356;2023-05-29T03:17:24;2.98;2.98;
61804;PMS7003;47725;47.912;7.356;2023-05-29T03:21:24;3.97;3.97;
61804;PMS7003;47725;47.912;7.356;2023-05-29T03:25:25;3.97;3.97;
61804;PMS7003;47725;47.912;7.356;2023-05-29T03:29:24;3.97;3.97;
61804;PMS7003;47725;47.912;7.356;2023-05-29T03:33:24;3.97;1.98;
61804;PMS7003;47725;47.912;7.356;2023-05-29T03:37:24;3.97;1.98;
61804;PMS7003;47725;47.912;7.356;2023-05-29T03:41:24;4.96;3.97;
61804;PMS7003;47725;47.912;7.356;2023-05-29T03:45:24;4.96;3.97;
61804;PMS7003;47725;47.912;7.356;2023-05-29T03:49:24;4.96;3.97;
61804;PMS7003;47725;47.912;7.356;2023-05-29T03:53:24;3.97;3.97;
61804;PMS7003;47725;47.912;7.356;2023-05-29T03:57:24;3.97;3.97;
61804;PMS7003;47725;47.912;7.356;2023-05-29T04:01:24;3.97;1.98;
61804;PMS7003;47725;47.912;7.356;2023-05-29T04:05:24;3.97;1.98;
61804;PMS7003;47725;47.912;7.356;2023-05-29T04:09:24;3.97;1.98;
61804;PMS7003;47725;47.912;7.356;2023-05-29T04:13:24;4.95;2.97;
61804;PMS7003;47725;47.912;7.356;2023-05-29T04:17:24;4.95;2.97;
61804;PMS7003;47725;47.912;7.356;2023-05-29T04:21:24;5.93;3.96;
61804;PMS7003;47725;47.912;7.356;2023-05-29T04:25:24;5.93;3.96;
61804;PMS7003;47725;47.912;7.356;2023-05-29T04:29:24;5.93;3.96;
61804;PMS7003;47725;47.912;7.356;2023-05-29T04:33:25;3.96;3.96;
61804;PMS7003;47725;47.912;7.356;2023-05-29T04:37:24;3.96;3.96;
61804;PMS7003;47725;47.912;7.356;2023-05-29T04:41:25;1.98;1.98;
61804;PMS7003;47725;47.912;7.356;2023-05-29T04:45:24;1.98;1.98;
61804;PMS7003;47725;47.912;7.356;2023-05-29T04:49:24;1.98;1.98;
61804;PMS7003;47725;47.912;7.356;2023-05-29T04:53:24;4.95;2.97;
61804;PMS7003;47725;47.912;7.356;2023-05-29T04:57:24;4.95;2.97;
61804;PMS7003;47725;47.912;7.356;2023-05-29T05:01:24;3.96;2.97;
61804;PMS7003;47725;47.912;7.356;2023-05-29T05:05:24;3.96;2.97;
61804;PMS7003;47725;47.912;7.356;2023-05-29T05:09:24;3.96;2.97;
61804;PMS7003;47725;47.912;7.356;2023-05-29T05:13:24;7.92;3.96;
61804;PMS7003;47725;47.912;7.356;2023-05-29T05:17:24;7.92;3.96;
61804;PMS7003;47725;47.912;7.356;2023-05-29T05:21:24;5.94;3.96;
61804;PMS7003;47725;47.912;7.356;2023-05-29T05:25:24;5.94;3.96;
61804;PMS7003;47725;47.912;7.356;2023-05-29T05:29:24;5.94;3.96;
61804;PMS7003;47725;47.912;7.356;2023-05-29T05:33:24;2.97;2.97;
61804;PMS7003;47725;47.912;7.356;2023-05-29T05:37:24;2.97;2.97;
61804;PMS7003;47725;47.912;7.356;2023-05-29T05:41:24;5.94;2.97;
61804;PMS7003;47725;47.912;7.356;2023-05-29T05:45:24;5.94;2.97;
61804;PMS7003;47725;47.912;7.356;2023-05-29T05:49:24;5.94;2.97;
61804;PMS7003;47725;47.912;7.356;2023-05-29T05:53:24;4.95;2.97;
61804;PMS7003;47725;47.912;7.356;2023-05-29T05:57:24;4.95;2.97;
61804;PMS7003;47725;47.912;7.356;2023-05-29T06:01:24;2.98;2.98;
61804;PMS7003;47725;47.912;7.356;2023-05-29T06:05:24;2.98;2.98;
61804;PMS7003;47725;47.912;7.356;2023-05-29T06:09:24;2.98;2.98;
61804;PMS7003;47725;47.912;7.356;2023-05-29T06:13:24;2.98;1.99;
61804;PMS7003;47725;47.912;7.356;2023-05-29T06:17:24;2.98;1.99;
61804;PMS7003;47725;47.912;7.356;2023-05-29T06:21:24;2.98;2.98;
61804;PMS7003;47725;47.912;7.356;2023-05-29T06:25:24;2.98;2.98;
61804;PMS7003;47725;47.912;7.356;2023-05-29T06:29:24;2.98;2.98;
61804;PMS7003;47725;47.912;7.356;2023-05-29T06:33:24;1.99;1.99;
61804;PMS7003;47725;47.912;7.356;2023-05-29T06:37:24;1.99;1.99;
61804;PMS7003;47725;47.912;7.356;2023-05-29T06:41:24;1.99;1.99;
61804;PMS7003;47725;47.912;7.356;2023-05-29T06:45:24;1.99;1.99;
61804;PMS7003;47725;47.912;7.356;2023-05-29T06:49:24;1.99;1.99;
61804;PMS7003;47725;47.912;7.356;2023-05-29T06:53:24;1.99;1.99;
61804;PMS7003;47725;47.912;7.356;2023-05-29T06:57:24;1.99;1.99;
61804;PMS7003;47725;47.912;7.356;2023-05-29T07:01:24;4.98;1.99;
61804;PMS7003;47725;47.912;7.356;2023-05-29T07:05:26;4.98;1.99;
61804;PMS7003;47725;47.912;7.356;2023-05-29T07:09:24;4.98;1.99;
61804;PMS7003;47725;47.912;7.356;2023-05-29T07:13:24;1.00;1.00;
61804;PMS7003;47725;47.912;7.356;2023-05-29T07:17:24;1.00;1.00;
61804;PMS7003;47725;47.912;7.356;2023-05-29T07:21:24;1.00;1.00;
61804;PMS7003;47725;47.912;7.356;2023-05-29T07:25:25;1.00;1.00;
61804;PMS7003;47725;47.912;7.356;2023-05-29T07:29:24;1.00;1.00;
61804;PMS7003;47725;47.912;7.356;2023-05-29T07:33:24;2.99;2.99;
61804;PMS7003;47725;47.912;7.356;2023-05-29T07:37:24;2.99;2.99;
61804;PMS7003;47725;47.912;7.356;2023-05-29T07:41:24;2.99;2.99;
61804;PMS7003;47725;47.912;7.356;2023-05-29T07:45:24;2.99;2.99;
61804;PMS7003;47725;47.912;7.356;2023-05-29T07:49:24;2.99;2.99;
61804;PMS7003;47725;47.912;7.356;2023-05-29T07:53:24;2.99;1.99;
61804;PMS7003;47725;47.912;7.356;2023-05-29T07:57:24;2.99;1.99;
61804;PMS7003;47725;47.912;7.356;2023-05-29T08:01:24;1.00;1.00;
61804;PMS7003;47725;47.912;7.356;2023-05-29T08:05:24;1.00;1.00;
61804;PMS7003;47725;47.912;7.356;2023-05-29T08:09:24;1.00;1.00;
61804;PMS7003;47725;47.912;7.356;2023-05-29T08:13:24;2.00;2.00;
61804;PMS7003;47725;47.912;7.356;2023-05-29T08:17:24;2.00;2.00;
61804;PMS7003;47725;47.912;7.356;2023-05-29T08:21:24;2.00;2.00;
61804;PMS7003;47725;47.912;7.356;2023-05-29T08:25:24;2.00;2.00;
61804;PMS7003;47725;47.912;7.356;2023-05-29T08:29:24;2.00;2.00;
61804;PMS7003;47725;47.912;7.356;2023-05-29T08:33:24;2.99;2.99;
61804;PMS7003;47725;47.912;7.356;2023-05-29T08:37:24;2.99;2.99;
61804;PMS7003;47725;47.912;7.356;2023-05-29T08:45:24;2.00;2.00;
61804;PMS7003;47725;47.912;7.356;2023-05-29T08:49:24;2.00;2.00;
61804;PMS7003;47725;47.912;7.356;2023-05-29T08:53:24;2.00;1.00;
61804;PMS7003;47725;47.912;7.356;2023-05-29T08:57:24;2.00;1.00;
61804;PMS7003;47725;47.912;7.356;2023-05-29T09:01:24;4.99;3.00;
61804;PMS7003;47725;47.912;7.356;2023-05-29T09:05:24;4.99;3.00;
61804;PMS7003;47725;47.912;7.356;2023-05-29T09:09:25;4.99;3.00;
61804;PMS7003;47725;47.912;7.356;2023-05-29T09:13:24;5.99;1.00;
61804;PMS7003;47725;47.912;7.356;2023-05-29T09:17:24;5.99;1.00;
61804;PMS7003;47725;47.912;7.356;2023-05-29T09:21:27;1.00;1.00;
61804;PMS7003;47725;47.912;7.356;2023-05-29T09:25:25;1.00;1.00;
61804;PMS7003;47725;47.912;7.356;2023-05-29T09:29:24;1.00;1.00;
61804;PMS7003;47725;47.912;7.356;2023-05-29T09:33:24;2.00;2.00;
61804;PMS7003;47725;47.912;7.356;2023-05-29T09:37:24;2.00;2.00;
61804;PMS7003;47725;47.912;7.356;2023-05-29T09:41:24;2.00;1.00;
61804;PMS7003;47725;47.912;7.356;2023-05-29T09:45:24;2.00;1.00;
61804;PMS7003;47725;47.912;7.356;2023-05-29T09:49:24;2.00;1.00;
61804;PMS7003;47725;47.912;7.356;2023-05-29T09:53:24;2.00;2.00;
61804;PMS7003;47725;47.912;7.356;2023-05-29T09:57:24;2.00;2.00;
61804;PMS7003;47725;47.912;7.356;2023-05-29T10:01:24;2.00;2.00;
61804;PMS7003;47725;47.912;7.356;2023-05-29T10:05:24;2.00;2.00;
61804;PMS7003;47725;47.912;7.356;2023-05-29T10:09:24;2.00;2.00;
61804;PMS7003;47725;47.912;7.356;2023-05-29T10:13:24;4.00;2.00;
61804;PMS7003;47725;47.912;7.356;2023-05-29T10:17:25;4.00;2.00;
61804;PMS7003;47725;47.912;7.356;2023-05-29T10:21:24;2.00;2.00;
61804;PMS7003;47725;47.912;7.356;2023-05-29T10:25:24;2.00;2.00;
61804;PMS7003;47725;47.912;7.356;2023-05-29T10:29:37;2.00;2.00;
61804;PMS7003;47725;47.912;7.356;2023-05-29T10:37:37;0.00;0.00;
61804;PMS7003;47725;47.912;7.356;2023-05-29T10:49:24;0.00;0.00;
61804;PMS7003;47725;47.912;7.356;2023-05-29T10:53:24;3.00;1.00;
61804;PMS7003;47725;47.912;7.356;2023-05-29T10:57:24;3.00;1.00;
61804;PMS7003;47725;47.912;7.356;2023-05-29T11:01:24;0.00;0.00;
61804;PMS7003;47725;47.912;7.356;2023-05-29T11:05:24;0.00;0.00;
61804;PMS7003;47725;47.912;7.356;2023-05-29T11:09:30;0.00;0.00;
61804;PMS7003;47725;47.912;7.356;2023-05-29T11:13:25;21.99;16.00;
61804;PMS7003;47725;47.912;7.356;2023-05-29T11:17:30;21.99;16.00;
61804;PMS7003;47725;47.912;7.356;2023-05-29T11:25:24;2.00;1.00;
61804;PMS7003;47725;47.912;7.356;2023-05-29T11:29:26;2.00;1.00;
61804;PMS7003;47725;47.912;7.356;2023-05-29T11:33:25;1.00;0.00;
61804;PMS7003;47725;47.912;7.356;2023-05-29T11:37:24;1.00;0.00;
61804;PMS7003;47725;47.912;7.356;2023-05-29T11:41:24;0.00;0.00;
61804;PMS7003;47725;47.912;7.356;2023-05-29T11:45:24;0.00;0.00;
61804;PMS7003;47725;47.912;7.356;2023-05-29T11:49:34;0.00;0.00;
61804;PMS7003;47725;47.912;7.356;2023-05-29T11:53:25;0.00;0.00;
61804;PMS7003;47725;47.912;7.356;2023-05-29T11:57:24;0.00;0.00;
61804;PMS7003;47725;47.912;7.356;2023-05-29T12:01:24;1.00;0.00;
61804;PMS7003;47725;47.912;7.356;2023-05-29T12:05:24;1.00;0.00;
61804;PMS7003;47725;47.912;7.356;2023-05-29T12:09:24;1.00;0.00;
61804;PMS7003;47725;47.912;7.356;2023-05-29T12:13:24;0.00;0.00;
61804;PMS7003;47725;47.912;7.356;2023-05-29T12:17:24;0.00;0.00;
61804;PMS7003;47725;47.912;7.356;2023-05-29T12:21:24;4.00;3.00;
61804;PMS7003;47725;47.912;7.356;2023-05-29T12:25:24;4.00;3.00;
61804;PMS7003;47725;47.912;7.356;2023-05-29T12:29:30;4.00;3.00;
61804;PMS7003;47725;47.912;7.356;2023-05-29T12:33:30;0.00;0.00;
61804;PMS7003;47725;47.912;7.356;2023-05-29T12:37:24;0.00;0.00;
61804;PMS7003;47725;47.912;7.356;2023-05-29T12:41:32;2.00;0.00;
61804;PMS7003;47725;47.912;7.356;2023-05-29T12:45:24;2.00;0.00;
61804;PMS7003;47725;47.912;7.356;2023-05-29T12:49:24;2.00;0.00;
61804;PMS7003;47725;47.912;7.356;2023-05-29T12:53:27;1.00;1.00;
61804;PMS7003;47725;47.912;7.356;2023-05-29T12:57:24;1.00;1.00;
61804;PMS7003;47725;47.912;7.356;2023-05-29T13:01:24;0.00;0.00;
61804;PMS7003;47725;47.912;7.356;2023-05-29T13:05:24;0.00;0.00;
61804;PMS7003;47725;47.912;7.356;2023-05-29T13:09:24;0.00;0.00;
61804;PMS7003;47725;47.912;7.356;2023-05-29T13:13:24;1.00;0.00;
61804;PMS7003;47725;47.912;7.356;2023-05-29T13:17:24;1.00;0.00;
61804;PMS7003;47725;47.912;7.356;2023-05-29T13:21:24;0.00;0.00;
61804;PMS7003;47725;47.912;7.356;2023-05-29T13:25:24;0.00;0.00;
61804;PMS7003;47725;47.912;7.356;2023-05-29T13:29:24;0.00;0.00;
61804;PMS7003;47725;47.912;7.356;2023-05-29T13:33:24;0.00;0.00;
61804;PMS7003;47725;47.912;7.356;2023-05-29T13:37:24;0.00;0.00;
61804;PMS7003;47725;47.912;7.356;2023-05-29T13:41:24;0.00;0.00;
61804;PMS7003;47725;47.912;7.356;2023-05-29T13:45:24;0.00;0.00;
61804;PMS7003;47725;47.912;7.356;2023-05-29T13:49:25;0.00;0.00;
61804;PMS7003;47725;47.912;7.356;2023-05-29T13:53:24;1.00;0.00;
61804;PMS7003;47725;47.912;7.356;2023-05-29T13:57:24;1.00;0.00;
61804;PMS7003;47725;47.912;7.356;2023-05-29T14:01:24;1.00;0.00;
61804;PMS7003;47725;47.912;7.356;2023-05-29T14:05:24;1.00;0.00;
61804;PMS7003;47725;47.912;7.356;2023-05-29T14:09:24;1.00;0.00;
61804;PMS7003;47725;47.912;7.356;2023-05-29T14:13:24;2.00;1.00;
61804;PMS7003;47725;47.912;7.356;2023-05-29T14:17:24;2.00;1.00;
61804;PMS7003;47725;47.912;7.356;2023-05-29T14:21:24;0.00;0.00;
61804;PMS7003;47725;47.912;7.356;2023-05-29T14:25:24;0.00;0.00;
61804;PMS7003;47725;47.912;7.356;2023-05-29T14:29:24;0.00;0.00;
61804;PMS7003;47725;47.912;7.356;2023-05-29T14:33:24;1.00;0.00;
61804;PMS7003;47725;47.912;7.356;2023-05-29T14:37:24;1.00;0.00;
61804;PMS7003;47725;47.912;7.356;2023-05-29T14:41:24;1.00;1.00;
61804;PMS7003;47725;47.912;7.356;2023-05-29T14:45:24;1.00;1.00;
61804;PMS7003;47725;47.912;7.356;2023-05-29T14:49:24;1.00;1.00;
61804;PMS7003;47725;47.912;7.356;2023-05-29T14:53:24;0.00;0.00;
61804;PMS7003;47725;47.912;7.356;2023-05-29T14:57:24;0.00;0.00;
61804;PMS7003;47725;47.912;7.356;2023-05-29T15:01:24;0.00;0.00;
61804;PMS7003;47725;47.912;7.356;2023-05-29T15:05:24;0.00;0.00;
61804;PMS7003;47725;47.912;7.356;2023-05-29T15:09:24;0.00;0.00;
61804;PMS7003;47725;47.912;7.356;2023-05-29T15:13:24;0.00;0.00;
61804;PMS7003;47725;47.912;7.356;2023-05-29T15:17:24;0.00;0.00;
61804;PMS7003;47725;47.912;7.356;2023-05-29T15:21:24;0.00;0.00;
61804;PMS7003;47725;47.912;7.356;2023-05-29T15:25:24;0.00;0.00;
61804;PMS7003;47725;47.912;7.356;2023-05-29T15:29:24;0.00;0.00;
61804;PMS7003;47725;47.912;7.356;2023-05-29T15:33:24;1.00;1.00;
61804;PMS7003;47725;47.912;7.356;2023-05-29T15:37:24;1.00;1.00;
61804;PMS7003;47725;47.912;7.356;2023-05-29T15:41:24;0.00;0.00;
61804;PMS7003;47725;47.912;7.356;2023-05-29T15:45:24;0.00;0.00;
61804;PMS7003;47725;47.912;7.356;2023-05-29T15:49:24;0.00;0.00;
61804;PMS7003;47725;47.912;7.356;2023-05-29T15:53:24;0.00;0.00;
61804;PMS7003;47725;47.912;7.356;2023-05-29T15:57:24;0.00;0.00;
61804;PMS7003;47725;47.912;7.356;2023-05-29T16:01:24;1.00;0.00;
61804;PMS7003;47725;47.912;7.356;2023-05-29T16:05:24;1.00;0.00;
61804;PMS7003;47725;47.912;7.356;2023-05-29T16:09:24;1.00;0.00;
61804;PMS7003;47725;47.912;7.356;2023-05-29T16:13:24;1.00;1.00;
61804;PMS7003;47725;47.912;7.356;2023-05-29T16:17:24;1.00;1.00;
61804;PMS7003;47725;47.912;7.356;2023-05-29T16:21:24;4.00;1.00;
61804;PMS7003;47725;47.912;7.356;2023-05-29T16:25:24;4.00;1.00;
61804;PMS7003;47725;47.912;7.356;2023-05-29T16:29:24;4.00;1.00;
61804;PMS7003;47725;47.912;7.356;2023-05-29T16:33:24;1.00;1.00;
61804;PMS7003;47725;47.912;7.356;2023-05-29T16:37:24;1.00;1.00;
61804;PMS7003;47725;47.912;7.356;2023-05-29T16:41:24;2.00;0.00;
61804;PMS7003;47725;47.912;7.356;2023-05-29T16:45:24;2.00;0.00;
61804;PMS7003;47725;47.912;7.356;2023-05-29T16:49:24;2.00;0.00;
61804;PMS7003;47725;47.912;7.356;2023-05-29T16:53:24;2.00;0.00;
61804;PMS7003;47725;47.912;7.356;2023-05-29T16:57:24;2.00;0.00;
61804;PMS7003;47725;47.912;7.356;2023-05-29T17:01:23;2.00;0.00;
61804;PMS7003;47725;47.912;7.356;2023-05-29T17:05:23;2.00;0.00;
61804;PMS7003;47725;47.912;7.356;2023-05-29T17:09:23;2.00;0.00;
61804;PMS7003;47725;47.912;7.356;2023-05-29T17:13:23;0.00;0.00;
61804;PMS7003;47725;47.912;7.356;2023-05-29T17:17:23;0.00;0.00;
61804;PMS7003;47725;47.912;7.356;2023-05-29T17:21:23;2.00;1.00;
61804;PMS7003;47725;47.912;7.356;2023-05-29T17:25:23;2.00;1.00;
61804;PMS7003;47725;47.912;7.356;2023-05-29T17:29:23;2.00;1.00;
61804;PMS7003;47725;47.912;7.356;2023-05-29T17:33:23;3.00;1.00;
61804;PMS7003;47725;47.912;7.356;2023-05-29T17:37:23;3.00;1.00;
61804;PMS7003;47725;47.912;7.356;2023-05-29T17:41:23;0.00;0.00;
61804;PMS7003;47725;47.912;7.356;2023-05-29T17:45:23;0.00;0.00;
61804;PMS7003;47725;47.912;7.356;2023-05-29T17:49:23;0.00;0.00;
61804;PMS7003;47725;47.912;7.356;2023-05-29T17:53:23;1.00;0.00;
61804;PMS7003;47725;47.912;7.356;2023-05-29T17:57:23;1.00;0.00;
61804;PMS7003;47725;47.912;7.356;2023-05-29T18:01:23;1.00;1.00;
61804;PMS7003;47725;47.912;7.356;2023-05-29T18:05:23;1.00;1.00;
61804;PMS7003;47725;47.912;7.356;2023-05-29T18:09:23;1.00;1.00;
61804;PMS7003;47725;47.912;7.356;2023-05-29T18:13:23;1.00;1.00;
61804;PMS7003;47725;47.912;7.356;2023-05-29T18:17:23;1.00;1.00;
61804;PMS7003;47725;47.912;7.356;2023-05-29T18:21:23;1.00;0.00;
61804;PMS7003;47725;47.912;7.356;2023-05-29T18:25:23;1.00;0.00;
61804;PMS7003;47725;47.912;7.356;2023-05-29T18:29:23;1.00;0.00;
61804;PMS7003;47725;47.912;7.356;2023-05-29T18:33:23;0.00;0.00;
61804;PMS7003;47725;47.912;7.356;2023-05-29T18:37:23;0.00;0.00;
61804;PMS7003;47725;47.912;7.356;2023-05-29T18:41:23;0.00;0.00;
61804;PMS7003;47725;47.912;7.356;2023-05-29T18:45:23;0.00;0.00;
61804;PMS7003;47725;47.912;7.356;2023-05-29T18:49:23;0.00;0.00;
61804;PMS7003;47725;47.912;7.356;2023-05-29T18:53:23;0.00;0.00;
61804;PMS7003;47725;47.912;7.356;2023-05-29T18:57:23;0.00;0.00;
61804;PMS7003;47725;47.912;7.356;2023-05-29T19:01:23;0.00;0.00;
61804;PMS7003;47725;47.912;7.356;2023-05-29T19:05:23;0.00;0.00;
61804;PMS7003;47725;47.912;7.356;2023-05-29T19:09:23;0.00;0.00;
61804;PMS7003;47725;47.912;7.356;2023-05-29T19:13:23;0.00;0.00;
61804;PMS7003;47725;47.912;7.356;2023-05-29T19:17:23;0.00;0.00;
61804;PMS7003;47725;47.912;7.356;2023-05-29T19:21:23;0.00;0.00;
61804;PMS7003;47725;47.912;7.356;2023-05-29T19:25:23;0.00;0.00;
61804;PMS7003;47725;47.912;7.356;2023-05-29T19:29:23;0.00;0.00;
61804;PMS7003;47725;47.912;7.356;2023-05-29T19:33:23;1.00;1.00;
61804;PMS7003;47725;47.912;7.356;2023-05-29T19:37:23;1.00;1.00;
61804;PMS7003;47725;47.912;7.356;2023-05-29T19:41:23;3.00;0.00;
61804;PMS7003;47725;47.912;7.356;2023-05-29T19:45:23;3.00;0.00;
61804;PMS7003;47725;47.912;7.356;2023-05-29T19:49:23;3.00;0.00;
61804;PMS7003;47725;47.912;7.356;2023-05-29T19:53:23;0.00;0.00;
61804;PMS7003;47725;47.912;7.356;2023-05-29T19:57:23;0.00;0.00;
61804;PMS7003;47725;47.912;7.356;2023-05-29T20:01:23;2.00;0.00;
61804;PMS7003;47725;47.912;7.356;2023-05-29T20:05:23;2.00;0.00;
61804;PMS7003;47725;47.912;7.356;2023-05-29T20:09:23;2.00;0.00;
61804;PMS7003;47725;47.912;7.356;2023-05-29T20:13:23;1.00;0.00;
61804;PMS7003;47725;47.912;7.356;2023-05-29T20:17:23;1.00;0.00;
61804;PMS7003;47725;47.912;7.356;2023-05-29T20:21:23;0.00;0.00;
61804;PMS7003;47725;47.912;7.356;2023-05-29T20:25:23;0.00;0.00;
61804;PMS7003;47725;47.912;7.356;2023-05-29T20:29:23;0.00;0.00;
61804;PMS7003;47725;47.912;7.356;2023-05-29T20:33:23;0.00;0.00;
61804;PMS7003;47725;47.912;7.356;2023-05-29T20:37:23;0.00;0.00;
61804;PMS7003;47725;47.912;7.356;2023-05-29T20:41:23;0.00;0.00;
61804;PMS7003;47725;47.912;7.356;2023-05-29T20:45:23;0.00;0.00;
61804;PMS7003;47725;47.912;7.356;2023-05-29T20:49:24;0.00;0.00;
61804;PMS7003;47725;47.912;7.356;2023-05-29T20:53:23;1.00;0.00;
61804;PMS7003;47725;47.912;7.356;2023-05-29T20:57:24;1.00;0.00;
61804;PMS7003;47725;47.912;7.356;2023-05-29T21:01:23;0.00;0.00;
61804;PMS7003;47725;47.912;7.356;2023-05-29T21:05:23;0.00;0.00;
61804;PMS7003;47725;47.912;7.356;2023-05-29T21:09:23;0.00;0.00;
61804;PMS7003;47725;47.912;7.356;2023-05-29T21:13:23;0.00;0.00;
61804;PMS7003;47725;47.912;7.356;2023-05-29T21:17:23;0.00;0.00;
61804;PMS7003;47725;47.912;7.356;2023-05-29T21:21:23;0.00;0.00;
61804;PMS7003;47725;47.912;7.356;2023-05-29T21:25:23;0.00;0.00;
61804;PMS7003;47725;47.912;7.356;2023-05-29T21:29:23;0.00;0.00;
61804;PMS7003;47725;47.912;7.356;2023-05-29T21:33:23;0.00;0.00;
61804;PMS7003;47725;47.912;7.356;2023-05-29T21:37:23;0.00;0.00;
61804;PMS7003;47725;47.912;7.356;2023-05-29T21:41:23;0.00;0.00;
61804;PMS7003;47725;47.912;7.356;2023-05-29T21:45:23;0.00;0.00;
61804;PMS7003;47725;47.912;7.356;2023-05-29T21:49:23;0.00;0.00;
61804;PMS7003;47725;47.912;7.356;2023-05-29T21:53:23;1.00;0.00;
61804;PMS7003;47725;47.912;7.356;2023-05-29T21:57:23;1.00;0.00;
61804;PMS7003;47725;47.912;7.356;2023-05-29T22:01:23;1.00;1.00;
61804;PMS7003;47725;47.912;7.356;2023-05-29T22:05:23;1.00;1.00;
61804;PMS7003;47725;47.912;7.356;2023-05-29T22:09:23;1.00;1.00;
61804;PMS7003;47725;47.912;7.356;2023-05-29T22:13:23;1.00;0.00;
61804;PMS7003;47725;47.912;7.356;2023-05-29T22:17:23;1.00;0.00;
61804;PMS7003;47725;47.912;7.356;2023-05-29T22:21:23;0.00;0.00;
61804;PMS7003;47725;47.912;7.356;2023-05-29T22:25:23;0.00;0.00;
61804;PMS7003;47725;47.912;7.356;2023-05-29T22:29:23;0.00;0.00;
61804;PMS7003;47725;47.912;7.356;2023-05-29T22:33:23;0.00;0.00;
61804;PMS7003;47725;47.912;7.356;2023-05-29T22:37:23;0.00;0.00;
61804;PMS7003;47725;47.912;7.356;2023-05-29T22:41:23;0.00;0.00;
61804;PMS7003;47725;47.912;7.356;2023-05-29T22:45:23;0.00;0.00;
61804;PMS7003;47725;47.912;7.356;2023-05-29T22:49:23;0.00;0.00;
61804;PMS7003;47725;47.912;7.356;2023-05-29T22:53:23;0.00;0.00;
61804;PMS7003;47725;47.912;7.356;2023-05-29T22:57:23;0.00;0.00;
61804;PMS7003;47725;47.912;7.356;2023-05-29T23:01:23;1.00;0.00;
61804;PMS7003;47725;47.912;7.356;2023-05-29T23:05:23;1.00;0.00;
61804;PMS7003;47725;47.912;7.356;2023-05-29T23:09:23;1.00;0.00;
61804;PMS7003;47725;47.912;7.356;2023-05-29T23:13:23;5.98;1.00;
61804;PMS7003;47725;47.912;7.356;2023-05-29T23:17:23;5.98;1.00;
61804;PMS7003;47725;47.912;7.356;2023-05-29T23:21:23;0.00;0.00;
61804;PMS7003;47725;47.912;7.356;2023-05-29T23:25:23;0.00;0.00;
61804;PMS7003;47725;47.912;7.356;2023-05-29T23:29:23;0.00;0.00;
61804;PMS7003;47725;47.912;7.356;2023-05-29T23:33:23;0.00;0.00;
61804;PMS7003;47725;47.912;7.356;2023-05-29T23:37:23;0.00;0.00;
61804;PMS7003;47725;47.912;7.356;2023-05-29T23:41:23;0.00;0.00;
61804;PMS7003;47725;47.912;7.356;2023-05-29T23:45:23;0.00;0.00;
61804;PMS7003;47725;47.912;7.356;2023-05-29T23:49:23;0.00;0.00;
61804;PMS7003;47725;47.912;7.356;2023-05-29T23:53:23;0.00;0.00;
61804;PMS7003;47725;47.912;7.356;2023-05-29T23:57:23;0.00;0.00;
